Weather History for KSME - November, 2013

Change the Weather History Date:

Sunday, November 17, 2013

  Actual Average Record
Temperature  
Mean Temperature 62 °F -  
Max Temperature 64 °F 56 °F 75 °F (2001)
Min Temperature 57 °F 35 °F 19 °F (1997)
Degree Days  
Heating Degree Days 4    
Growing Degree Days 12 (Base 50)    
Moisture  
Dew Point 56 °F    
Average Humidity 81    
Maximum Humidity 100    
Minimum Humidity 68    
Precipitation  
Precipitation 0.61 in - - ()
Sea Level Pressure  
Sea Level Pressure 29.88 in    
Wind  
Wind Speed 12 mph (SSW)    
Max Wind Speed 20 mph    
Max Gust Speed 30 mph    
Visibility 10 miles    
Events Rain    
Averages and records for this station are not official NWS values.
T = Trace of Precipitation, MM = Missing Value Source: NWS Daily Summary

Daily Weather History Graph

Daily Weather History Graph

Search for Another Location

Airport or City:

Trip Planner

Search our weather history database for the weather conditions in past years. The results will help you decide how hot, cold, wet, or windy it might be!

Date:

Astronomy

Nov. 17, 2013 Rise Set
Actual Time 7:19 AM EST 5:27 PM EST
Civil Twilight 6:51 AM EST 5:55 PM EST
Nautical Twilight 6:20 AM EST 6:26 PM EST
Astronomical Twilight 5:49 AM EST 6:57 PM EST
Moon 5:43 PM EST (11/17) 7:12 AM EST (11/17)
Length of Visible Light 11h 03m
Length of Day
10h 07m
Full, 100% of the Moon is Illuminated
Nov 17
Full
Nov 25
Last Quarter
Dec 2
New
Dec 9
First Quarter
Dec 17
Full

Hourly Weather History & Observations

Time (EST) Temp. Dew Point Humidity Pressure Visibility Wind Dir Wind Speed Gust Speed Precip Events Conditions
12:15 AM 60.8 °F 51.8 °F 72% 30.03 in 10.0 mi SSW 12.7 mph 21.9 mph N/A   Overcast
12:35 AM 60.8 °F 51.8 °F 72% 30.02 in 10.0 mi South 18.4 mph 26.5 mph N/A   Overcast
12:55 AM 62.6 °F 51.8 °F 68% 30.02 in 10.0 mi SSW 10.4 mph 20.7 mph N/A   Overcast
1:15 AM 62.6 °F 51.8 °F 68% 30.01 in 10.0 mi SSW 17.3 mph 29.9 mph N/A   Overcast
1:35 AM 62.6 °F 51.8 °F 68% 30.01 in 10.0 mi SSW 15.0 mph 25.3 mph N/A   Overcast
1:55 AM 62.6 °F 51.8 °F 68% 30.00 in 10.0 mi South 19.6 mph 27.6 mph N/A   Overcast
2:15 AM 62.6 °F 51.8 °F 68% 29.98 in 10.0 mi South 16.1 mph 23.0 mph N/A   Mostly Cloudy
2:35 AM 62.6 °F 51.8 °F 68% 29.98 in 10.0 mi South 12.7 mph 23.0 mph N/A   Mostly Cloudy
2:55 AM 62.6 °F 51.8 °F 68% 29.97 in 10.0 mi South 13.8 mph 20.7 mph N/A   Overcast
3:15 AM 62.6 °F 51.8 °F 68% 29.97 in 10.0 mi South 16.1 mph 28.8 mph N/A   Overcast
3:35 AM 62.6 °F 51.8 °F 68% 29.97 in 10.0 mi South 13.8 mph 23.0 mph N/A   Overcast
3:55 AM 62.6 °F 51.8 °F 68% 29.97 in 10.0 mi South 10.4 mph 21.9 mph N/A   Overcast
4:15 AM 62.6 °F 51.8 °F 68% 29.97 in 10.0 mi South 10.4 mph 16.1 mph N/A   Overcast
4:35 AM 62.6 °F 51.8 °F 68% 29.96 in 10.0 mi SSW 12.7 mph 19.6 mph N/A   Overcast
4:55 AM 62.6 °F 51.8 °F 68% 29.96 in 10.0 mi South 9.2 mph 19.6 mph N/A   Overcast
5:15 AM 62.6 °F 51.8 °F 68% 29.96 in 10.0 mi SSW 10.4 mph 17.3 mph N/A   Overcast
5:35 AM 62.6 °F 53.6 °F 72% 29.96 in 10.0 mi SSW 10.4 mph - N/A   Overcast
5:55 AM 62.6 °F 53.6 °F 72% 29.96 in 10.0 mi SSW 9.2 mph 16.1 mph N/A   Overcast
6:15 AM 62.6 °F 53.6 °F 72% 29.96 in 10.0 mi SSW 11.5 mph 20.7 mph N/A   Overcast
6:35 AM 62.6 °F 53.6 °F 72% 29.95 in 10.0 mi South 11.5 mph - N/A   Overcast
6:55 AM 62.6 °F 53.6 °F 72% 29.94 in 10.0 mi South 12.7 mph 17.3 mph N/A   Overcast
7:15 AM 62.6 °F 53.6 °F 72% 29.94 in 10.0 mi South 8.1 mph 17.3 mph N/A   Overcast
7:35 AM 62.6 °F 53.6 °F 72% 29.94 in 10.0 mi South 12.7 mph 20.7 mph N/A   Overcast
7:55 AM 62.6 °F 53.6 °F 72% 29.94 in 10.0 mi South 11.5 mph 20.7 mph N/A   Overcast
8:15 AM 62.6 °F 53.6 °F 72% 29.95 in 10.0 mi South 13.8 mph 19.6 mph N/A   Overcast
8:35 AM 62.6 °F 53.6 °F 72% 29.94 in 10.0 mi South 10.4 mph 21.9 mph N/A   Overcast
8:55 AM 62.6 °F 53.6 °F 72% 29.95 in 10.0 mi South 12.7 mph 21.9 mph N/A   Overcast
9:15 AM 64.4 °F 53.6 °F 68% 29.96 in 10.0 mi SSW 12.7 mph 26.5 mph N/A   Overcast
9:35 AM 64.4 °F 53.6 °F 68% 29.96 in 10.0 mi SSW 12.7 mph 20.7 mph N/A   Overcast
9:55 AM 64.4 °F 53.6 °F 68% 29.96 in 10.0 mi South 12.7 mph 19.6 mph N/A   Overcast
10:15 AM 62.6 °F 53.6 °F 72% 29.96 in 10.0 mi South 10.4 mph 18.4 mph N/A Rain Light Rain
10:35 AM 62.6 °F 55.4 °F 77% 29.96 in 10.0 mi South 9.2 mph - 0.01 in Rain Rain
10:55 AM 62.6 °F 55.4 °F 77% 29.95 in 10.0 mi SSW 9.2 mph - 0.02 in Rain Light Rain
11:15 AM 62.6 °F 55.4 °F 77% 29.93 in 10.0 mi South 9.2 mph - N/A Rain Light Rain
11:35 AM 62.6 °F 55.4 °F 77% 29.91 in 7.0 mi South 9.2 mph 18.4 mph 0.03 in Rain Rain
11:55 AM 62.6 °F 55.4 °F 77% 29.89 in 10.0 mi SSW 12.7 mph 20.7 mph 0.05 in Rain Light Rain
12:15 PM 62.6 °F 55.4 °F 77% 29.86 in 10.0 mi SSW 16.1 mph 23.0 mph 0.01 in   Overcast
12:35 PM 62.6 °F 55.4 °F 77% 29.84 in 10.0 mi South 15.0 mph 28.8 mph 0.01 in   Overcast
12:55 PM 62.6 °F 55.4 °F 77% 29.83 in 10.0 mi SSW 15.0 mph 28.8 mph 0.01 in   Overcast
1:15 PM 62.6 °F 55.4 °F 77% 29.83 in 10.0 mi SSW 15.0 mph 29.9 mph N/A Rain Light Rain
1:35 PM 62.6 °F 57.2 °F 82% 29.81 in 10.0 mi South 15.0 mph 21.9 mph N/A Rain Light Rain
1:55 PM 62.6 °F 59.0 °F 88% 29.81 in 10.0 mi South 13.8 mph 24.2 mph 0.03 in Rain Rain
2:15 PM 62.6 °F 59.0 °F 88% 29.80 in 4.0 mi South 16.1 mph 23.0 mph 0.06 in Rain Heavy Rain
2:35 PM 60.8 °F 60.8 °F 100% 29.79 in 10.0 mi SSW 16.1 mph 20.7 mph 0.11 in   Overcast
2:55 PM 62.6 °F 60.8 °F 94% 29.78 in 10.0 mi SSW 11.5 mph 26.5 mph 0.11 in   Light Drizzle
3:15 PM 62.6 °F 60.8 °F 94% 29.77 in 7.0 mi SSW 11.5 mph 18.4 mph 0.01 in Rain Heavy Rain
3:35 PM 62.6 °F 60.8 °F 94% 29.78 in 10.0 mi SSW 10.4 mph 17.3 mph 0.01 in   Drizzle
3:55 PM 62.6 °F 60.8 °F 94% 29.77 in 10.0 mi South 10.4 mph 16.1 mph 0.01 in   Light Drizzle
4:15 PM 64.4 °F 60.8 °F 88% 29.77 in 10.0 mi SSW 9.2 mph - N/A Rain Light Rain
4:35 PM 62.6 °F 60.8 °F 94% 29.77 in 7.0 mi SSW 8.1 mph - 0.01 in Rain Rain
4:55 PM 62.6 °F 60.8 °F 94% 29.77 in 10.0 mi SSW 9.2 mph 16.1 mph 0.02 in   Overcast
5:15 PM 62.6 °F 60.8 °F 94% 29.77 in 10.0 mi SSW 12.7 mph 19.6 mph N/A Rain Rain
5:35 PM 62.6 °F 60.8 °F 94% 29.77 in 10.0 mi South 10.4 mph 16.1 mph N/A   Overcast
5:55 PM 62.6 °F 60.8 °F 94% 29.76 in 10.0 mi SSW 10.4 mph 16.1 mph N/A   Overcast
6:15 PM 64.4 °F 60.8 °F 88% 29.76 in 10.0 mi SSW 11.5 mph 20.7 mph N/A   Overcast
6:35 PM 64.4 °F 60.8 °F 88% 29.77 in 10.0 mi SSW 13.8 mph 21.9 mph N/A   Overcast
6:55 PM 64.4 °F 60.8 °F 88% 29.77 in 10.0 mi SSW 13.8 mph 21.9 mph N/A   Overcast
7:15 PM 64.4 °F 60.8 °F 88% 29.75 in 10.0 mi SSW 13.8 mph 19.6 mph N/A   Overcast
7:35 PM 64.4 °F 60.8 °F 88% 29.76 in 10.0 mi SSW 10.4 mph 19.6 mph N/A   Overcast
7:55 PM 64.4 °F 62.6 °F 94% 29.76 in 10.0 mi SSW 13.8 mph 17.3 mph N/A   Overcast
8:15 PM 64.4 °F 60.8 °F 88% 29.76 in 10.0 mi South 9.2 mph - N/A   Overcast
8:35 PM 64.4 °F 60.8 °F 88% 29.78 in 10.0 mi West 4.6 mph - N/A Rain Light Rain
8:55 PM 60.8 °F 55.4 °F 82% 29.79 in 7.0 mi WSW 12.7 mph 17.3 mph 0.35 in Rain Light Rain
9:15 PM 60.8 °F 59.0 °F 94% 29.81 in 10.0 mi WSW 10.4 mph - N/A Rain Light Rain
9:35 PM 60.8 °F 59.0 °F 94% 29.83 in 10.0 mi West 5.8 mph - N/A   Light Drizzle
9:55 PM 60.8 °F 59.0 °F 94% 29.84 in 10.0 mi Calm Calm - N/A   Overcast
10:15 PM 60.8 °F 59.0 °F 94% 29.85 in 10.0 mi Calm Calm - 0.01 in   Overcast
10:35 PM 59.0 °F 59.0 °F 100% 29.86 in 10.0 mi Calm Calm - 0.01 in   Overcast
10:55 PM 59.0 °F 59.0 °F 100% 29.86 in 10.0 mi West 3.5 mph - 0.01 in   Overcast
11:15 PM 59.0 °F 59.0 °F 100% 29.87 in 10.0 mi WSW 4.6 mph - N/A   Overcast
11:35 PM 59.0 °F 59.0 °F 100% 29.88 in 10.0 mi WSW 5.8 mph - N/A   Mostly Cloudy
11:55 PM 57.2 °F 57.2 °F 100% 29.89 in 10.0 mi West 4.6 mph - N/A   Mostly Cloudy